createdAt,value
2022-08-08T00:03:31.499Z,69.90
2022-08-08T00:09:16.679Z,70.00
2022-08-08T00:15:10.545Z,70.20
2022-08-08T00:20:56.940Z,70.40
2022-08-08T00:26:33.998Z,70.60
2022-08-08T00:32:20.426Z,70.40
2022-08-08T00:38:06.325Z,70.50
2022-08-08T00:44:15.163Z,70.90
2022-08-08T00:50:23.447Z,70.80
2022-08-08T00:56:29.539Z,71.40
2022-08-08T01:03:59.627Z,70.90
2022-08-08T01:09:35.767Z,70.70
2022-08-08T01:15:54.530Z,70.70
2022-08-08T01:22:09.817Z,70.80
2022-08-08T01:28:04.058Z,71.00
2022-08-08T01:34:05.071Z,70.90
2022-08-08T01:40:24.505Z,71.10
2022-08-08T01:46:24.797Z,71.00
2022-08-08T01:54:05.122Z,71.20
2022-08-08T01:58:46.974Z,71.10
2022-08-08T02:04:35.295Z,71.20
2022-08-08T02:10:49.723Z,71.30
2022-08-08T02:17:20.377Z,71.20
2022-08-08T02:23:22.946Z,71.60
2022-08-08T02:29:52.549Z,71.60
2022-08-08T02:36:03.473Z,71.70
2022-08-08T02:42:05.602Z,71.90
2022-08-08T02:48:33.477Z,71.90
2022-08-08T02:54:39.667Z,72.00
2022-08-08T03:00:27.276Z,72.00
2022-08-08T03:06:30.599Z,71.90
2022-08-08T03:12:36.840Z,71.80
2022-08-08T03:18:57.794Z,71.90
2022-08-08T03:24:27.046Z,72.10
2022-08-08T03:30:09.774Z,72.10
2022-08-08T03:35:43.719Z,72.00
2022-08-08T03:47:19.697Z,72.20
2022-08-08T03:52:52.087Z,72.40
2022-08-08T03:58:34.082Z,72.70
2022-08-08T04:04:13.765Z,72.60
2022-08-08T04:10:03.003Z,72.70
2022-08-08T04:15:38.890Z,72.70
2022-08-08T04:26:56.871Z,73.10
2022-08-08T04:38:03.384Z,73.30
2022-08-08T04:43:45.874Z,72.90
2022-08-08T04:49:28.637Z,73.20
2022-08-08T04:55:10.877Z,73.30
2022-08-08T05:00:38.994Z,73.20
2022-08-08T05:06:13.439Z,73.60
2022-08-08T05:11:56.556Z,73.70
2022-08-08T05:17:26.861Z,73.60
2022-08-08T05:23:05.581Z,73.50
2022-08-08T05:28:56.357Z,73.50
2022-08-08T05:39:56.304Z,73.60
2022-08-08T05:45:41.535Z,73.60
2022-08-08T05:56:48.341Z,73.40
2022-08-08T06:02:47.904Z,73.60
2022-08-08T06:08:33.247Z,73.40
2022-08-08T06:19:42.701Z,73.40
2022-08-08T06:30:44.869Z,73.10
2022-08-08T06:36:21.892Z,73.20
2022-08-08T06:42:03.312Z,73.10
2022-08-08T06:53:39.510Z,72.70
2022-08-08T06:59:12.253Z,72.70
2022-08-08T07:05:24.567Z,72.60
2022-08-08T07:11:00.215Z,72.40
2022-08-08T07:17:09.572Z,72.40
2022-08-08T07:23:23.556Z,72.20
2022-08-08T07:34:31.752Z,71.90
2022-08-08T07:40:05.260Z,71.80
2022-08-08T07:46:05.170Z,71.70
2022-08-08T07:51:45.010Z,71.50
2022-08-08T08:03:20.638Z,71.40
2022-08-08T08:09:17.496Z,71.30
2022-08-08T08:15:07.352Z,70.80
2022-08-08T08:20:40.820Z,70.30
2022-08-08T08:26:12.783Z,70.70
2022-08-08T08:31:57.560Z,68.70
2022-08-08T08:37:30.183Z,69.10
2022-08-08T08:43:00.753Z,68.80
2022-08-08T08:48:29.930Z,68.70
2022-08-08T08:54:02.393Z,68.00
2022-08-08T08:59:58.758Z,68.30
2022-08-08T09:05:53.757Z,67.20
2022-08-08T09:11:19.622Z,67.20
2022-08-08T09:16:52.104Z,66.40
2022-08-08T09:22:26.597Z,66.00
2022-08-08T09:27:58.538Z,65.70
2022-08-08T09:34:06.309Z,66.10
2022-08-08T09:39:24.384Z,64.90
2022-08-08T09:46:00.644Z,63.70
2022-08-08T09:51:16.195Z,63.10
2022-08-08T09:56:50.164Z,63.70
2022-08-08T10:02:28.932Z,62.70
2022-08-08T10:07:59.882Z,62.30
2022-08-08T10:13:35.410Z,61.50
2022-08-08T10:19:07.692Z,60.80
2022-08-08T10:24:46.346Z,61.10
2022-08-08T10:31:00.641Z,59.90
2022-08-08T10:36:21.111Z,60.00
2022-08-08T10:42:15.335Z,59.80
2022-08-08T10:47:55.200Z,59.60
2022-08-08T10:53:56.607Z,59.30
2022-08-08T10:59:26.961Z,59.40
2022-08-08T11:05:05.561Z,59.10
2022-08-08T11:10:43.155Z,58.90
2022-08-08T11:16:34.652Z,58.30
2022-08-08T11:22:05.027Z,57.80
2022-08-08T11:27:36.953Z,57.60
2022-08-08T11:33:12.423Z,56.90
2022-08-08T11:38:55.499Z,56.80
2022-08-08T11:44:28.970Z,57.10
2022-08-08T11:50:03.600Z,56.80
2022-08-08T11:55:49.282Z,56.30
2022-08-08T12:01:18.394Z,56.10
2022-08-08T12:06:49.456Z,56.40
2022-08-08T12:12:28.753Z,55.80
2022-08-08T12:17:57.183Z,55.20
2022-08-08T12:23:43.931Z,55.70
2022-08-08T12:29:40.310Z,55.30
2022-08-08T12:35:21.513Z,55.00
2022-08-08T12:40:56.337Z,55.20
2022-08-08T12:46:26.744Z,55.10
2022-08-08T12:52:00.121Z,53.90
2022-08-08T12:57:31.130Z,53.60
2022-08-08T13:03:00.827Z,54.00
2022-08-08T13:08:40.852Z,53.90
2022-08-08T13:14:21.474Z,53.40
2022-08-08T13:20:06.364Z,53.40
2022-08-08T13:25:36.510Z,53.20
2022-08-08T13:31:05.585Z,53.20
2022-08-08T13:36:40.473Z,53.30
2022-08-08T13:42:12.669Z,52.60
2022-08-08T13:47:55.519Z,52.70
2022-08-08T13:53:36.345Z,52.70
2022-08-08T13:59:05.452Z,52.60
2022-08-08T14:04:35.215Z,51.90
2022-08-08T14:10:12.119Z,51.60
2022-08-08T14:15:50.393Z,52.20
2022-08-08T14:21:20.672Z,51.70
2022-08-08T14:26:55.423Z,52.00
2022-08-08T14:32:29.968Z,51.40
2022-08-08T14:38:09.447Z,51.00
2022-08-08T14:44:10.253Z,50.70
2022-08-08T14:50:05.826Z,50.70
2022-08-08T14:55:41.269Z,48.00
2022-08-08T15:01:23.216Z,47.60
2022-08-08T15:07:04.285Z,47.50
2022-08-08T15:12:37.389Z,48.50
2022-08-08T15:18:10.703Z,49.00
2022-08-08T15:23:43.192Z,48.90
2022-08-08T15:29:16.203Z,49.00
2022-08-08T15:34:57.004Z,49.00
2022-08-08T15:40:28.544Z,49.10
2022-08-08T15:45:59.034Z,49.20
2022-08-08T15:51:38.920Z,49.30
2022-08-08T15:57:16.525Z,49.50
2022-08-08T16:03:01.813Z,49.80
2022-08-08T16:08:35.429Z,49.90
2022-08-08T16:19:59.542Z,50.10
2022-08-08T16:25:46.310Z,50.10
2022-08-08T16:37:18.174Z,50.30
2022-08-08T16:42:46.287Z,50.40
2022-08-08T16:48:23.033Z,50.30
2022-08-08T16:55:02.821Z,50.50
2022-08-08T16:59:41.055Z,50.20
2022-08-08T17:05:19.938Z,50.30
2022-08-08T17:10:57.971Z,49.90
2022-08-08T17:21:57.884Z,50.40
2022-08-08T17:27:41.834Z,50.90
2022-08-08T17:34:35.731Z,50.60
2022-08-08T17:39:05.363Z,51.00
2022-08-08T17:44:52.777Z,51.10
2022-08-08T17:50:20.762Z,51.40
2022-08-08T17:56:06.148Z,51.30
2022-08-08T18:01:56.871Z,51.50
2022-08-08T18:13:13.428Z,51.70
2022-08-08T18:18:52.772Z,51.90
2022-08-08T18:24:27.643Z,52.10
2022-08-08T18:29:58.250Z,52.10
2022-08-08T18:35:34.067Z,52.40
2022-08-08T18:41:09.607Z,52.40
2022-08-08T18:52:25.442Z,52.80
2022-08-08T18:57:54.093Z,52.90
2022-08-08T19:03:22.057Z,53.10
2022-08-08T19:08:51.788Z,53.50
2022-08-08T19:14:20.255Z,53.50
2022-08-08T19:20:02.586Z,53.90
2022-08-08T19:26:26.866Z,53.90
2022-08-08T19:31:19.664Z,54.10
2022-08-08T19:36:52.066Z,54.20
2022-08-08T19:42:20.284Z,54.40
2022-08-08T19:47:52.468Z,54.50
2022-08-08T19:53:46.803Z,54.80
2022-08-08T19:59:14.437Z,54.80
2022-08-08T20:04:46.803Z,54.90
2022-08-08T20:10:18.110Z,55.00
2022-08-08T20:15:52.582Z,55.20
2022-08-08T20:21:32.014Z,55.40
2022-08-08T20:32:37.643Z,55.80
2022-08-08T20:43:44.078Z,56.00
2022-08-08T20:49:17.437Z,56.10
2022-08-08T20:54:45.563Z,56.40
2022-08-08T21:00:14.861Z,56.80
2022-08-08T21:05:49.375Z,56.80
2022-08-08T21:11:51.230Z,56.90
2022-08-08T21:28:35.791Z,57.50
2022-08-08T21:34:04.025Z,57.70
2022-08-08T21:39:56.189Z,58.10
2022-08-08T21:51:11.243Z,58.50
2022-08-08T21:56:43.440Z,58.80
2022-08-08T22:02:14.229Z,58.80
2022-08-08T22:07:48.166Z,57.40
2022-08-08T22:18:52.975Z,59.30
2022-08-08T22:36:04.173Z,60.00
2022-08-08T22:57:54.517Z,60.70
2022-08-08T23:14:56.262Z,61.40
2022-08-08T23:20:28.190Z,61.30
2022-08-08T23:25:57.035Z,61.50
2022-08-08T23:31:24.981Z,61.70
2022-08-08T23:36:57.890Z,62.20
2022-08-08T23:54:05.358Z,63.10
